sensor_id;sensor_type;location;lat;lon;timestamp;temperature;humidity
4896;DHT22;2463;49.948;8.472;2023-06-22T00:00:52;23.90;99.90
4896;DHT22;2463;49.948;8.472;2023-06-22T00:03:21;23.90;99.90
4896;DHT22;2463;49.948;8.472;2023-06-22T00:05:49;23.80;99.90
4896;DHT22;2463;49.948;8.472;2023-06-22T00:08:16;23.90;99.90
4896;DHT22;2463;49.948;8.472;2023-06-22T00:10:44;23.80;99.90
4896;DHT22;2463;49.948;8.472;2023-06-22T00:13:11;23.70;99.90
4896;DHT22;2463;49.948;8.472;2023-06-22T00:15:40;23.60;99.90
4896;DHT22;2463;49.948;8.472;2023-06-22T00:18:09;23.80;99.90
4896;DHT22;2463;49.948;8.472;2023-06-22T00:20:36;23.80;99.90
4896;DHT22;2463;49.948;8.472;2023-06-22T00:23:05;23.80;99.90
4896;DHT22;2463;49.948;8.472;2023-06-22T00:25:38;23.70;99.90
4896;DHT22;2463;49.948;8.472;2023-06-22T00:28:08;23.80;99.90
4896;DHT22;2463;49.948;8.472;2023-06-22T00:30:35;23.70;99.90
4896;DHT22;2463;49.948;8.472;2023-06-22T00:33:02;23.80;99.90
4896;DHT22;2463;49.948;8.472;2023-06-22T00:35:29;23.70;99.90
4896;DHT22;2463;49.948;8.472;2023-06-22T00:38:00;23.80;99.90
4896;DHT22;2463;49.948;8.472;2023-06-22T00:40:31;23.80;99.90
4896;DHT22;2463;49.948;8.472;2023-06-22T00:42:58;23.80;99.90
4896;DHT22;2463;49.948;8.472;2023-06-22T00:45:26;23.80;99.90
4896;DHT22;2463;49.948;8.472;2023-06-22T00:47:56;23.80;99.90
4896;DHT22;2463;49.948;8.472;2023-06-22T00:50:25;23.70;99.90
4896;DHT22;2463;49.948;8.472;2023-06-22T00:52:55;23.80;99.90
4896;DHT22;2463;49.948;8.472;2023-06-22T00:55:23;23.80;99.90
4896;DHT22;2463;49.948;8.472;2023-06-22T00:57:50;23.80;99.90
4896;DHT22;2463;49.948;8.472;2023-06-22T01:00:18;23.80;99.90
4896;DHT22;2463;49.948;8.472;2023-06-22T01:02:46;23.90;99.90
4896;DHT22;2463;49.948;8.472;2023-06-22T01:05:14;23.80;99.90
4896;DHT22;2463;49.948;8.472;2023-06-22T01:10:55;23.70;99.90
4896;DHT22;2463;49.948;8.472;2023-06-22T01:16:26;23.50;99.90
4896;DHT22;2463;49.948;8.472;2023-06-22T01:18:56;23.30;99.90
4896;DHT22;2463;49.948;8.472;2023-06-22T01:21:26;23.20;99.90
4896;DHT22;2463;49.948;8.472;2023-06-22T01:26:39;22.90;99.90
4896;DHT22;2463;49.948;8.472;2023-06-22T01:29:07;22.90;99.90
4896;DHT22;2463;49.948;8.472;2023-06-22T01:31:35;22.90;99.90
4896;DHT22;2463;49.948;8.472;2023-06-22T01:34:05;22.80;99.90
4896;DHT22;2463;49.948;8.472;2023-06-22T01:36:33;22.90;99.90
4896;DHT22;2463;49.948;8.472;2023-06-22T01:39:02;22.80;99.90
4896;DHT22;2463;49.948;8.472;2023-06-22T01:41:34;22.70;99.90
4896;DHT22;2463;49.948;8.472;2023-06-22T01:44:03;22.80;99.90
4896;DHT22;2463;49.948;8.472;2023-06-22T01:46:32;22.60;99.90
4896;DHT22;2463;49.948;8.472;2023-06-22T01:49:00;22.60;99.90
4896;DHT22;2463;49.948;8.472;2023-06-22T01:51:27;22.60;99.90
4896;DHT22;2463;49.948;8.472;2023-06-22T01:53:54;22.60;99.90
4896;DHT22;2463;49.948;8.472;2023-06-22T01:56:20;22.50;99.90
4896;DHT22;2463;49.948;8.472;2023-06-22T01:59:27;22.50;99.90
4896;DHT22;2463;49.948;8.472;2023-06-22T02:02:01;22.40;99.90
4896;DHT22;2463;49.948;8.472;2023-06-22T02:04:36;22.40;99.90
4896;DHT22;2463;49.948;8.472;2023-06-22T02:07:10;22.40;99.90
4896;DHT22;2463;49.948;8.472;2023-06-22T02:09:38;22.40;99.90
4896;DHT22;2463;49.948;8.472;2023-06-22T02:12:10;22.40;99.90
4896;DHT22;2463;49.948;8.472;2023-06-22T02:14:38;22.40;99.90
4896;DHT22;2463;49.948;8.472;2023-06-22T02:17:05;22.40;99.90
4896;DHT22;2463;49.948;8.472;2023-06-22T02:19:37;22.40;99.90
4896;DHT22;2463;49.948;8.472;2023-06-22T02:22:04;22.40;99.90
4896;DHT22;2463;49.948;8.472;2023-06-22T02:24:31;22.50;99.90
4896;DHT22;2463;49.948;8.472;2023-06-22T02:26:59;22.40;99.90
4896;DHT22;2463;49.948;8.472;2023-06-22T02:29:27;22.40;99.90
4896;DHT22;2463;49.948;8.472;2023-06-22T02:31:54;22.40;99.90
4896;DHT22;2463;49.948;8.472;2023-06-22T02:34:21;22.50;99.90
4896;DHT22;2463;49.948;8.472;2023-06-22T02:36:49;22.50;99.90
4896;DHT22;2463;49.948;8.472;2023-06-22T02:41:46;22.40;99.90
4896;DHT22;2463;49.948;8.472;2023-06-22T02:44:12;22.40;99.90
4896;DHT22;2463;49.948;8.472;2023-06-22T02:46:39;22.40;99.90
4896;DHT22;2463;49.948;8.472;2023-06-22T02:49:06;22.30;99.90
4896;DHT22;2463;49.948;8.472;2023-06-22T02:51:33;22.30;99.90
4896;DHT22;2463;49.948;8.472;2023-06-22T02:54:00;22.30;99.90
4896;DHT22;2463;49.948;8.472;2023-06-22T02:56:28;22.30;99.90
4896;DHT22;2463;49.948;8.472;2023-06-22T02:58:57;22.30;99.90
4896;DHT22;2463;49.948;8.472;2023-06-22T03:01:28;22.30;99.90
4896;DHT22;2463;49.948;8.472;2023-06-22T03:03:57;22.30;99.90
4896;DHT22;2463;49.948;8.472;2023-06-22T03:06:23;22.30;99.90
4896;DHT22;2463;49.948;8.472;2023-06-22T03:09:01;22.30;99.90
4896;DHT22;2463;49.948;8.472;2023-06-22T03:11:33;22.40;99.90
4896;DHT22;2463;49.948;8.472;2023-06-22T03:14:01;22.30;99.90
4896;DHT22;2463;49.948;8.472;2023-06-22T03:16:28;22.30;99.90
4896;DHT22;2463;49.948;8.472;2023-06-22T03:18:55;22.30;99.90
4896;DHT22;2463;49.948;8.472;2023-06-22T03:21:23;22.40;99.90
4896;DHT22;2463;49.948;8.472;2023-06-22T03:23:49;22.40;99.90
4896;DHT22;2463;49.948;8.472;2023-06-22T03:26:17;22.40;99.90
4896;DHT22;2463;49.948;8.472;2023-06-22T03:28:44;22.40;99.90
4896;DHT22;2463;49.948;8.472;2023-06-22T03:31:10;22.40;99.90
4896;DHT22;2463;49.948;8.472;2023-06-22T03:33:37;22.40;99.90
4896;DHT22;2463;49.948;8.472;2023-06-22T03:36:04;22.40;99.90
4896;DHT22;2463;49.948;8.472;2023-06-22T03:38:31;22.40;99.90
4896;DHT22;2463;49.948;8.472;2023-06-22T03:40:58;22.40;99.90
4896;DHT22;2463;49.948;8.472;2023-06-22T03:43:25;22.40;99.90
4896;DHT22;2463;49.948;8.472;2023-06-22T03:45:51;22.50;99.90
4896;DHT22;2463;49.948;8.472;2023-06-22T03:48:18;22.40;99.90
4896;DHT22;2463;49.948;8.472;2023-06-22T03:50:45;22.40;99.90
4896;DHT22;2463;49.948;8.472;2023-06-22T03:53:12;22.30;99.90
4896;DHT22;2463;49.948;8.472;2023-06-22T03:55:48;22.40;99.90
4896;DHT22;2463;49.948;8.472;2023-06-22T03:58:16;22.50;99.90
4896;DHT22;2463;49.948;8.472;2023-06-22T04:00:43;22.40;99.90
4896;DHT22;2463;49.948;8.472;2023-06-22T04:03:09;22.50;99.90
4896;DHT22;2463;49.948;8.472;2023-06-22T04:05:39;22.50;99.90
4896;DHT22;2463;49.948;8.472;2023-06-22T04:08:06;22.50;99.90
4896;DHT22;2463;49.948;8.472;2023-06-22T04:10:33;22.50;99.90
4896;DHT22;2463;49.948;8.472;2023-06-22T04:13:00;22.50;99.90
4896;DHT22;2463;49.948;8.472;2023-06-22T04:15:27;22.50;99.90
4896;DHT22;2463;49.948;8.472;2023-06-22T04:17:55;22.50;99.90
4896;DHT22;2463;49.948;8.472;2023-06-22T04:20:22;22.60;99.90
4896;DHT22;2463;49.948;8.472;2023-06-22T04:22:49;22.50;99.90
4896;DHT22;2463;49.948;8.472;2023-06-22T04:25:16;22.50;99.90
4896;DHT22;2463;49.948;8.472;2023-06-22T04:27:43;22.50;99.90
4896;DHT22;2463;49.948;8.472;2023-06-22T04:30:10;22.50;99.90
4896;DHT22;2463;49.948;8.472;2023-06-22T04:32:37;22.50;99.90
4896;DHT22;2463;49.948;8.472;2023-06-22T04:35:04;22.60;99.90
4896;DHT22;2463;49.948;8.472;2023-06-22T04:37:31;22.60;99.90
4896;DHT22;2463;49.948;8.472;2023-06-22T04:39:58;22.60;99.90
4896;DHT22;2463;49.948;8.472;2023-06-22T04:42:26;22.70;99.90
4896;DHT22;2463;49.948;8.472;2023-06-22T04:44:53;22.70;99.90
4896;DHT22;2463;49.948;8.472;2023-06-22T04:47:20;22.80;99.90
4896;DHT22;2463;49.948;8.472;2023-06-22T04:49:47;22.90;99.90
4896;DHT22;2463;49.948;8.472;2023-06-22T04:52:14;22.90;99.90
4896;DHT22;2463;49.948;8.472;2023-06-22T04:54:44;22.90;99.90
4896;DHT22;2463;49.948;8.472;2023-06-22T04:57:22;22.90;99.90
4896;DHT22;2463;49.948;8.472;2023-06-22T04:59:59;22.90;99.90
4896;DHT22;2463;49.948;8.472;2023-06-22T05:02:39;23.00;99.90
4896;DHT22;2463;49.948;8.472;2023-06-22T05:05:06;23.00;99.90
4896;DHT22;2463;49.948;8.472;2023-06-22T05:07:34;22.90;99.90
4896;DHT22;2463;49.948;8.472;2023-06-22T05:10:04;23.00;99.90
4896;DHT22;2463;49.948;8.472;2023-06-22T05:12:31;22.90;99.90
4896;DHT22;2463;49.948;8.472;2023-06-22T05:14:58;22.90;99.90
4896;DHT22;2463;49.948;8.472;2023-06-22T05:17:25;23.00;99.90
4896;DHT22;2463;49.948;8.472;2023-06-22T05:19:52;23.00;99.90
4896;DHT22;2463;49.948;8.472;2023-06-22T05:22:19;23.00;99.90
4896;DHT22;2463;49.948;8.472;2023-06-22T05:24:46;23.00;99.90
4896;DHT22;2463;49.948;8.472;2023-06-22T05:27:14;23.10;99.90
4896;DHT22;2463;49.948;8.472;2023-06-22T05:29:41;23.00;99.90
4896;DHT22;2463;49.948;8.472;2023-06-22T05:32:09;23.10;99.90
4896;DHT22;2463;49.948;8.472;2023-06-22T05:34:36;23.10;99.90
4896;DHT22;2463;49.948;8.472;2023-06-22T05:37:03;23.10;99.90
4896;DHT22;2463;49.948;8.472;2023-06-22T05:39:30;23.20;99.90
4896;DHT22;2463;49.948;8.472;2023-06-22T05:41:57;23.20;99.90
4896;DHT22;2463;49.948;8.472;2023-06-22T05:44:24;23.30;99.90
4896;DHT22;2463;49.948;8.472;2023-06-22T05:46:50;23.30;99.90
4896;DHT22;2463;49.948;8.472;2023-06-22T05:49:17;23.40;99.90
4896;DHT22;2463;49.948;8.472;2023-06-22T05:51:44;23.40;99.90
4896;DHT22;2463;49.948;8.472;2023-06-22T05:54:10;23.50;99.90
4896;DHT22;2463;49.948;8.472;2023-06-22T05:56:39;23.60;99.90
4896;DHT22;2463;49.948;8.472;2023-06-22T05:59:06;23.70;99.90
4896;DHT22;2463;49.948;8.472;2023-06-22T06:01:33;23.80;99.90
4896;DHT22;2463;49.948;8.472;2023-06-22T06:04:02;23.90;99.90
4896;DHT22;2463;49.948;8.472;2023-06-22T06:06:31;23.90;99.90
4896;DHT22;2463;49.948;8.472;2023-06-22T06:08:57;24.00;99.90
4896;DHT22;2463;49.948;8.472;2023-06-22T06:11:26;24.20;99.90
4896;DHT22;2463;49.948;8.472;2023-06-22T06:13:53;24.30;99.90
4896;DHT22;2463;49.948;8.472;2023-06-22T06:16:19;24.40;99.90
4896;DHT22;2463;49.948;8.472;2023-06-22T06:18:46;24.50;99.90
4896;DHT22;2463;49.948;8.472;2023-06-22T06:21:15;24.80;99.90
4896;DHT22;2463;49.948;8.472;2023-06-22T06:23:41;25.00;99.90
4896;DHT22;2463;49.948;8.472;2023-06-22T06:26:08;25.20;99.90
4896;DHT22;2463;49.948;8.472;2023-06-22T06:28:35;25.40;99.90
4896;DHT22;2463;49.948;8.472;2023-06-22T06:31:02;25.50;99.90
4896;DHT22;2463;49.948;8.472;2023-06-22T06:33:29;25.80;99.90
4896;DHT22;2463;49.948;8.472;2023-06-22T06:35:57;26.10;99.90
4896;DHT22;2463;49.948;8.472;2023-06-22T06:38:24;26.80;99.90
4896;DHT22;2463;49.948;8.472;2023-06-22T06:40:51;27.30;99.90
4896;DHT22;2463;49.948;8.472;2023-06-22T06:43:18;28.30;99.90
4896;DHT22;2463;49.948;8.472;2023-06-22T06:45:45;29.10;99.90
4896;DHT22;2463;49.948;8.472;2023-06-22T06:48:11;30.00;99.90
4896;DHT22;2463;49.948;8.472;2023-06-22T06:50:38;30.90;99.90
4896;DHT22;2463;49.948;8.472;2023-06-22T06:53:05;31.70;99.90
4896;DHT22;2463;49.948;8.472;2023-06-22T06:55:32;32.50;99.90
4896;DHT22;2463;49.948;8.472;2023-06-22T06:57:59;33.10;99.90
4896;DHT22;2463;49.948;8.472;2023-06-22T07:00:26;33.50;99.90
4896;DHT22;2463;49.948;8.472;2023-06-22T07:02:54;33.60;99.90
4896;DHT22;2463;49.948;8.472;2023-06-22T07:05:21;33.70;99.90
4896;DHT22;2463;49.948;8.472;2023-06-22T07:07:47;33.90;99.90
4896;DHT22;2463;49.948;8.472;2023-06-22T07:10:14;33.90;99.90
4896;DHT22;2463;49.948;8.472;2023-06-22T07:12:42;33.80;99.90
4896;DHT22;2463;49.948;8.472;2023-06-22T07:15:10;33.60;99.90
4896;DHT22;2463;49.948;8.472;2023-06-22T07:17:38;33.50;99.90
4896;DHT22;2463;49.948;8.472;2023-06-22T07:20:08;33.40;99.90
4896;DHT22;2463;49.948;8.472;2023-06-22T07:22:40;33.20;99.90
4896;DHT22;2463;49.948;8.472;2023-06-22T07:25:08;33.10;99.90
4896;DHT22;2463;49.948;8.472;2023-06-22T07:27:46;33.00;99.90
4896;DHT22;2463;49.948;8.472;2023-06-22T07:30:14;32.90;99.90
4896;DHT22;2463;49.948;8.472;2023-06-22T07:32:41;32.80;99.90
4896;DHT22;2463;49.948;8.472;2023-06-22T07:35:08;32.70;99.90
4896;DHT22;2463;49.948;8.472;2023-06-22T07:37:35;32.50;99.90
4896;DHT22;2463;49.948;8.472;2023-06-22T07:40:02;32.40;99.90
4896;DHT22;2463;49.948;8.472;2023-06-22T07:42:33;32.40;99.90
4896;DHT22;2463;49.948;8.472;2023-06-22T07:45:01;32.40;99.90
4896;DHT22;2463;49.948;8.472;2023-06-22T07:47:29;32.50;99.90
4896;DHT22;2463;49.948;8.472;2023-06-22T07:49:57;32.50;99.90
4896;DHT22;2463;49.948;8.472;2023-06-22T07:52:24;32.70;99.90
4896;DHT22;2463;49.948;8.472;2023-06-22T07:54:52;32.80;99.90
4896;DHT22;2463;49.948;8.472;2023-06-22T07:57:19;32.70;99.90
4896;DHT22;2463;49.948;8.472;2023-06-22T07:59:46;32.80;99.90
4896;DHT22;2463;49.948;8.472;2023-06-22T08:02:13;32.90;99.90
4896;DHT22;2463;49.948;8.472;2023-06-22T08:04:40;33.00;99.90
4896;DHT22;2463;49.948;8.472;2023-06-22T08:07:07;33.10;99.90
4896;DHT22;2463;49.948;8.472;2023-06-22T08:09:34;33.10;99.90
4896;DHT22;2463;49.948;8.472;2023-06-22T08:12:02;33.20;99.90
4896;DHT22;2463;49.948;8.472;2023-06-22T08:14:29;33.20;99.90
4896;DHT22;2463;49.948;8.472;2023-06-22T08:16:56;33.10;99.90
4896;DHT22;2463;49.948;8.472;2023-06-22T08:19:23;33.10;99.90
4896;DHT22;2463;49.948;8.472;2023-06-22T08:21:50;33.10;99.90
4896;DHT22;2463;49.948;8.472;2023-06-22T08:24:16;33.20;99.90
4896;DHT22;2463;49.948;8.472;2023-06-22T08:26:43;33.20;99.90
4896;DHT22;2463;49.948;8.472;2023-06-22T08:29:10;33.30;99.90
4896;DHT22;2463;49.948;8.472;2023-06-22T08:31:37;33.30;99.90
4896;DHT22;2463;49.948;8.472;2023-06-22T08:34:04;33.40;99.90
4896;DHT22;2463;49.948;8.472;2023-06-22T08:36:30;33.50;99.90
4896;DHT22;2463;49.948;8.472;2023-06-22T08:38:59;33.60;99.90
4896;DHT22;2463;49.948;8.472;2023-06-22T08:41:28;33.70;99.90
4896;DHT22;2463;49.948;8.472;2023-06-22T08:43:55;33.80;99.90
4896;DHT22;2463;49.948;8.472;2023-06-22T08:46:22;33.80;99.90
4896;DHT22;2463;49.948;8.472;2023-06-22T08:48:51;33.80;99.90
4896;DHT22;2463;49.948;8.472;2023-06-22T08:51:17;33.90;99.90
4896;DHT22;2463;49.948;8.472;2023-06-22T08:53:44;34.00;99.90
4896;DHT22;2463;49.948;8.472;2023-06-22T08:56:11;34.00;99.90
4896;DHT22;2463;49.948;8.472;2023-06-22T08:58:38;34.00;99.90
4896;DHT22;2463;49.948;8.472;2023-06-22T09:01:05;33.50;99.90
4896;DHT22;2463;49.948;8.472;2023-06-22T09:03:32;33.20;99.90
4896;DHT22;2463;49.948;8.472;2023-06-22T09:05:59;33.20;99.90
4896;DHT22;2463;49.948;8.472;2023-06-22T09:08:26;33.20;99.90
4896;DHT22;2463;49.948;8.472;2023-06-22T09:10:53;33.40;99.90
4896;DHT22;2463;49.948;8.472;2023-06-22T09:13:19;33.80;99.90
4896;DHT22;2463;49.948;8.472;2023-06-22T09:15:46;34.00;99.90
4896;DHT22;2463;49.948;8.472;2023-06-22T09:18:13;34.20;99.90
4896;DHT22;2463;49.948;8.472;2023-06-22T09:20:40;34.30;99.90
4896;DHT22;2463;49.948;8.472;2023-06-22T09:23:07;34.30;99.90
4896;DHT22;2463;49.948;8.472;2023-06-22T09:25:34;34.40;99.90
4896;DHT22;2463;49.948;8.472;2023-06-22T09:28:00;34.60;99.90
4896;DHT22;2463;49.948;8.472;2023-06-22T09:30:27;34.40;99.90
4896;DHT22;2463;49.948;8.472;2023-06-22T09:32:54;34.30;99.90
4896;DHT22;2463;49.948;8.472;2023-06-22T09:35:21;34.20;99.90
4896;DHT22;2463;49.948;8.472;2023-06-22T09:37:48;34.30;99.90
4896;DHT22;2463;49.948;8.472;2023-06-22T09:40:14;34.30;99.90
4896;DHT22;2463;49.948;8.472;2023-06-22T09:42:43;34.40;99.90
4896;DHT22;2463;49.948;8.472;2023-06-22T09:45:10;34.40;99.90
4896;DHT22;2463;49.948;8.472;2023-06-22T09:47:37;34.60;99.90
4896;DHT22;2463;49.948;8.472;2023-06-22T09:50:05;34.90;99.90
4896;DHT22;2463;49.948;8.472;2023-06-22T09:52:32;34.90;99.90
4896;DHT22;2463;49.948;8.472;2023-06-22T09:55:13;34.80;99.90
4896;DHT22;2463;49.948;8.472;2023-06-22T09:57:42;34.60;99.90
4896;DHT22;2463;49.948;8.472;2023-06-22T10:00:09;34.40;99.90
4896;DHT22;2463;49.948;8.472;2023-06-22T10:02:40;34.30;99.90
4896;DHT22;2463;49.948;8.472;2023-06-22T10:05:08;34.30;99.90
4896;DHT22;2463;49.948;8.472;2023-06-22T10:07:35;34.50;99.90
4896;DHT22;2463;49.948;8.472;2023-06-22T10:10:07;34.70;99.90
4896;DHT22;2463;49.948;8.472;2023-06-22T10:12:33;34.70;99.90
4896;DHT22;2463;49.948;8.472;2023-06-22T10:15:00;34.80;99.90
4896;DHT22;2463;49.948;8.472;2023-06-22T10:17:28;35.00;99.90
4896;DHT22;2463;49.948;8.472;2023-06-22T10:19:55;35.20;99.90
4896;DHT22;2463;49.948;8.472;2023-06-22T10:22:21;35.30;99.90
4896;DHT22;2463;49.948;8.472;2023-06-22T10:24:48;35.50;99.90
4896;DHT22;2463;49.948;8.472;2023-06-22T10:27:15;35.70;99.90
4896;DHT22;2463;49.948;8.472;2023-06-22T10:29:41;36.00;99.90
4896;DHT22;2463;49.948;8.472;2023-06-22T10:32:08;36.30;99.90
4896;DHT22;2463;49.948;8.472;2023-06-22T10:34:35;36.40;99.70
4896;DHT22;2463;49.948;8.472;2023-06-22T10:37:02;36.60;99.30
4896;DHT22;2463;49.948;8.472;2023-06-22T10:39:28;36.30;98.00
4896;DHT22;2463;49.948;8.472;2023-06-22T10:41:55;36.40;98.70
4896;DHT22;2463;49.948;8.472;2023-06-22T10:44:22;36.60;98.90
4896;DHT22;2463;49.948;8.472;2023-06-22T10:46:49;36.80;99.10
4896;DHT22;2463;49.948;8.472;2023-06-22T10:49:16;37.00;99.10
4896;DHT22;2463;49.948;8.472;2023-06-22T10:51:42;37.10;98.20
4896;DHT22;2463;49.948;8.472;2023-06-22T10:54:09;37.00;97.40
4896;DHT22;2463;49.948;8.472;2023-06-22T10:56:36;37.00;98.50
4896;DHT22;2463;49.948;8.472;2023-06-22T10:59:02;37.10;98.60
4896;DHT22;2463;49.948;8.472;2023-06-22T11:01:29;37.10;97.40
4896;DHT22;2463;49.948;8.472;2023-06-22T11:04:03;37.00;96.70
4896;DHT22;2463;49.948;8.472;2023-06-22T11:06:30;36.90;97.20
4896;DHT22;2463;49.948;8.472;2023-06-22T11:08:57;36.70;97.00
4896;DHT22;2463;49.948;8.472;2023-06-22T11:11:32;36.40;97.30
4896;DHT22;2463;49.948;8.472;2023-06-22T11:13:59;36.20;97.00
4896;DHT22;2463;49.948;8.472;2023-06-22T11:16:26;36.00;97.80
4896;DHT22;2463;49.948;8.472;2023-06-22T11:18:53;36.20;97.90
4896;DHT22;2463;49.948;8.472;2023-06-22T11:21:20;36.20;97.90
4896;DHT22;2463;49.948;8.472;2023-06-22T11:23:47;36.10;96.80
4896;DHT22;2463;49.948;8.472;2023-06-22T11:26:13;35.90;97.10
4896;DHT22;2463;49.948;8.472;2023-06-22T11:28:40;35.90;98.00
4896;DHT22;2463;49.948;8.472;2023-06-22T11:31:07;36.10;98.30
4896;DHT22;2463;49.948;8.472;2023-06-22T11:33:51;36.30;97.50
4896;DHT22;2463;49.948;8.472;2023-06-22T11:36:18;36.20;97.10
4896;DHT22;2463;49.948;8.472;2023-06-22T11:38:44;36.00;97.40
4896;DHT22;2463;49.948;8.472;2023-06-22T11:41:11;35.80;97.70
4896;DHT22;2463;49.948;8.472;2023-06-22T11:43:38;35.80;97.60
4896;DHT22;2463;49.948;8.472;2023-06-22T11:46:05;35.60;97.00
4896;DHT22;2463;49.948;8.472;2023-06-22T11:48:32;35.80;98.40
4896;DHT22;2463;49.948;8.472;2023-06-22T11:50:59;36.20;98.20
4896;DHT22;2463;49.948;8.472;2023-06-22T11:53:26;36.60;97.50
4896;DHT22;2463;49.948;8.472;2023-06-22T11:55:53;36.70;96.70
4896;DHT22;2463;49.948;8.472;2023-06-22T11:58:22;36.80;96.50
4896;DHT22;2463;49.948;8.472;2023-06-22T12:00:49;36.80;96.80
4896;DHT22;2463;49.948;8.472;2023-06-22T12:03:18;37.00;96.90
4896;DHT22;2463;49.948;8.472;2023-06-22T12:05:46;37.00;96.60
4896;DHT22;2463;49.948;8.472;2023-06-22T12:08:13;37.00;96.70
4896;DHT22;2463;49.948;8.472;2023-06-22T12:10:40;37.10;97.20
4896;DHT22;2463;49.948;8.472;2023-06-22T12:13:07;37.20;96.30
4896;DHT22;2463;49.948;8.472;2023-06-22T12:15:34;37.20;96.10
4896;DHT22;2463;49.948;8.472;2023-06-22T12:18:01;37.30;95.90
4896;DHT22;2463;49.948;8.472;2023-06-22T12:20:28;37.50;97.20
4896;DHT22;2463;49.948;8.472;2023-06-22T12:22:55;37.90;95.50
4896;DHT22;2463;49.948;8.472;2023-06-22T12:25:24;37.90;95.20
4896;DHT22;2463;49.948;8.472;2023-06-22T12:27:51;37.80;94.70
4896;DHT22;2463;49.948;8.472;2023-06-22T12:30:18;37.70;95.70
4896;DHT22;2463;49.948;8.472;2023-06-22T12:32:44;37.40;95.30
4896;DHT22;2463;49.948;8.472;2023-06-22T12:35:11;37.20;95.80
4896;DHT22;2463;49.948;8.472;2023-06-22T12:37:41;37.20;95.70
4896;DHT22;2463;49.948;8.472;2023-06-22T12:40:09;37.10;94.60
4896;DHT22;2463;49.948;8.472;2023-06-22T12:42:36;37.10;97.00
4896;DHT22;2463;49.948;8.472;2023-06-22T12:45:04;37.10;97.00
4896;DHT22;2463;49.948;8.472;2023-06-22T12:47:31;37.00;96.00
4896;DHT22;2463;49.948;8.472;2023-06-22T12:49:57;37.00;96.40
4896;DHT22;2463;49.948;8.472;2023-06-22T12:52:24;37.00;97.20
4896;DHT22;2463;49.948;8.472;2023-06-22T12:54:51;37.10;97.00
4896;DHT22;2463;49.948;8.472;2023-06-22T12:57:21;37.00;96.00
4896;DHT22;2463;49.948;8.472;2023-06-22T12:59:48;37.10;96.70
4896;DHT22;2463;49.948;8.472;2023-06-22T13:02:15;37.10;97.40
4896;DHT22;2463;49.948;8.472;2023-06-22T13:04:42;37.10;97.20
4896;DHT22;2463;49.948;8.472;2023-06-22T13:07:10;37.00;96.20
4896;DHT22;2463;49.948;8.472;2023-06-22T13:09:48;36.90;95.50
4896;DHT22;2463;49.948;8.472;2023-06-22T13:12:19;36.90;96.20
4896;DHT22;2463;49.948;8.472;2023-06-22T13:14:47;36.60;95.20
4896;DHT22;2463;49.948;8.472;2023-06-22T13:17:13;36.40;95.90
4896;DHT22;2463;49.948;8.472;2023-06-22T13:19:40;36.40;97.00
4896;DHT22;2463;49.948;8.472;2023-06-22T13:22:34;36.20;94.40
4896;DHT22;2463;49.948;8.472;2023-06-22T13:25:06;35.70;95.00
4896;DHT22;2463;49.948;8.472;2023-06-22T13:27:33;35.40;95.20
4896;DHT22;2463;49.948;8.472;2023-06-22T13:30:00;35.30;95.80
4896;DHT22;2463;49.948;8.472;2023-06-22T13:32:27;35.30;95.30
4896;DHT22;2463;49.948;8.472;2023-06-22T13:34:54;35.70;95.60
4896;DHT22;2463;49.948;8.472;2023-06-22T13:37:21;35.40;94.50
4896;DHT22;2463;49.948;8.472;2023-06-22T13:39:47;35.50;94.90
4896;DHT22;2463;49.948;8.472;2023-06-22T13:42:14;35.40;94.50
4896;DHT22;2463;49.948;8.472;2023-06-22T13:44:41;35.40;94.10
4896;DHT22;2463;49.948;8.472;2023-06-22T13:47:08;35.50;94.60
4896;DHT22;2463;49.948;8.472;2023-06-22T13:49:34;35.50;93.30
4896;DHT22;2463;49.948;8.472;2023-06-22T13:52:01;35.30;93.40
4896;DHT22;2463;49.948;8.472;2023-06-22T13:54:29;35.10;93.30
4896;DHT22;2463;49.948;8.472;2023-06-22T13:56:59;35.10;92.80
4896;DHT22;2463;49.948;8.472;2023-06-22T13:59:26;34.90;93.00
4896;DHT22;2463;49.948;8.472;2023-06-22T14:01:54;34.90;93.20
4896;DHT22;2463;49.948;8.472;2023-06-22T14:04:23;35.00;92.90
4896;DHT22;2463;49.948;8.472;2023-06-22T14:06:50;35.00;91.90
4896;DHT22;2463;49.948;8.472;2023-06-22T14:09:18;35.10;91.80
4896;DHT22;2463;49.948;8.472;2023-06-22T14:11:45;35.30;92.00
4896;DHT22;2463;49.948;8.472;2023-06-22T14:14:11;35.20;91.10
4896;DHT22;2463;49.948;8.472;2023-06-22T14:16:38;35.10;91.00
4896;DHT22;2463;49.948;8.472;2023-06-22T14:19:05;35.10;91.00
4896;DHT22;2463;49.948;8.472;2023-06-22T14:21:31;35.00;91.20
4896;DHT22;2463;49.948;8.472;2023-06-22T14:23:58;34.90;92.30
4896;DHT22;2463;49.948;8.472;2023-06-22T14:26:25;34.70;92.70
4896;DHT22;2463;49.948;8.472;2023-06-22T14:28:52;34.60;92.90
4896;DHT22;2463;49.948;8.472;2023-06-22T14:31:19;34.50;92.60
4896;DHT22;2463;49.948;8.472;2023-06-22T14:33:48;34.30;92.10
4896;DHT22;2463;49.948;8.472;2023-06-22T14:36:16;34.10;92.60
4896;DHT22;2463;49.948;8.472;2023-06-22T14:38:44;33.80;92.90
4896;DHT22;2463;49.948;8.472;2023-06-22T14:41:12;33.60;92.80
4896;DHT22;2463;49.948;8.472;2023-06-22T14:43:47;33.50;92.90
4896;DHT22;2463;49.948;8.472;2023-06-22T14:46:15;33.50;93.50
4896;DHT22;2463;49.948;8.472;2023-06-22T14:48:42;33.50;93.50
4896;DHT22;2463;49.948;8.472;2023-06-22T14:51:09;33.50;93.80
4896;DHT22;2463;49.948;8.472;2023-06-22T14:53:42;33.40;94.10
4896;DHT22;2463;49.948;8.472;2023-06-22T14:56:09;33.20;94.10
4896;DHT22;2463;49.948;8.472;2023-06-22T14:58:36;33.00;94.30
4896;DHT22;2463;49.948;8.472;2023-06-22T15:01:03;32.90;94.10
4896;DHT22;2463;49.948;8.472;2023-06-22T15:03:31;32.70;94.00
4896;DHT22;2463;49.948;8.472;2023-06-22T15:05:59;32.40;94.20
4896;DHT22;2463;49.948;8.472;2023-06-22T15:08:27;32.30;94.50
4896;DHT22;2463;49.948;8.472;2023-06-22T15:10:54;32.20;94.50
4896;DHT22;2463;49.948;8.472;2023-06-22T15:13:21;32.30;94.60
4896;DHT22;2463;49.948;8.472;2023-06-22T15:15:49;32.30;94.90
4896;DHT22;2463;49.948;8.472;2023-06-22T15:18:16;32.30;95.20
4896;DHT22;2463;49.948;8.472;2023-06-22T15:20:44;32.50;95.40
4896;DHT22;2463;49.948;8.472;2023-06-22T15:23:12;32.60;95.40
4896;DHT22;2463;49.948;8.472;2023-06-22T15:25:39;32.70;96.10
4896;DHT22;2463;49.948;8.472;2023-06-22T15:28:06;32.60;96.00
4896;DHT22;2463;49.948;8.472;2023-06-22T15:30:33;32.80;95.70
4896;DHT22;2463;49.948;8.472;2023-06-22T15:33:00;32.70;95.20
4896;DHT22;2463;49.948;8.472;2023-06-22T15:35:27;32.80;95.20
4896;DHT22;2463;49.948;8.472;2023-06-22T15:37:54;32.70;95.70
4896;DHT22;2463;49.948;8.472;2023-06-22T15:40:22;32.80;95.90
4896;DHT22;2463;49.948;8.472;2023-06-22T15:42:52;32.80;95.60
4896;DHT22;2463;49.948;8.472;2023-06-22T15:45:19;32.70;95.90
4896;DHT22;2463;49.948;8.472;2023-06-22T15:47:46;32.60;96.20
4896;DHT22;2463;49.948;8.472;2023-06-22T15:50:13;32.40;96.10
4896;DHT22;2463;49.948;8.472;2023-06-22T15:52:40;32.30;95.90
4896;DHT22;2463;49.948;8.472;2023-06-22T15:55:08;32.30;96.30
4896;DHT22;2463;49.948;8.472;2023-06-22T15:57:36;32.20;96.80
4896;DHT22;2463;49.948;8.472;2023-06-22T16:00:03;32.10;96.70
4896;DHT22;2463;49.948;8.472;2023-06-22T16:02:31;31.90;96.90
4896;DHT22;2463;49.948;8.472;2023-06-22T16:04:58;31.70;97.00
4896;DHT22;2463;49.948;8.472;2023-06-22T16:07:26;31.60;97.30
4896;DHT22;2463;49.948;8.472;2023-06-22T16:09:53;31.40;97.60
4896;DHT22;2463;49.948;8.472;2023-06-22T16:12:20;31.30;98.20
4896;DHT22;2463;49.948;8.472;2023-06-22T16:14:47;31.00;99.90
4896;DHT22;2463;49.948;8.472;2023-06-22T16:17:13;29.70;99.90